Terminal Aerodrome Forecast
Issued by NWS

Home | Current Version | Previous Version | Graphics & Text | Print | Product List | Glossary On
Versions: 1 2 3 4 5 6 7 8 9 10 11 12 13 14 15
000
FTUS43 KBIS 152300
TAFJMS
TAF
KJMS 152338Z 1600/1624 10018KT P6SM OVC060
     FM160900 07020G27KT 3SM -SN OVC020
     FM161600 04017G23KT P6SM OVC050=

USA.gov is the U.S. government's official web portal to all federal, state and local government web resources and services.